createdAt,value
2022-08-01T00:01:00.426Z,19.69
2022-08-01T00:04:03.172Z,19.67
2022-08-01T00:07:05.887Z,19.60
2022-08-01T00:10:12.566Z,19.59
2022-08-01T00:13:15.268Z,19.66
2022-08-01T00:16:18.151Z,19.83
2022-08-01T00:19:20.801Z,19.85
2022-08-01T00:22:23.551Z,19.89
2022-08-01T00:25:33.996Z,19.78
2022-08-01T00:28:37.458Z,19.82
2022-08-01T00:31:40.247Z,19.91
2022-08-01T00:34:42.942Z,19.88
2022-08-01T00:37:45.915Z,19.74
2022-08-01T00:40:50.036Z,19.81
2022-08-01T00:43:52.809Z,19.78
2022-08-01T00:46:55.510Z,19.81
2022-08-01T00:49:58.191Z,19.80
2022-08-01T00:53:01.754Z,19.86
2022-08-01T00:56:06.477Z,19.84
2022-08-01T00:59:09.909Z,19.87
2022-08-01T01:02:14.954Z,19.93
2022-08-01T01:05:18.325Z,19.82
2022-08-01T01:08:26.240Z,19.72
2022-08-01T01:11:34.241Z,19.84
2022-08-01T01:14:45.738Z,19.87
2022-08-01T01:17:53.859Z,19.80
2022-08-01T01:21:09.530Z,19.84
2022-08-01T01:24:23.517Z,19.90
2022-08-01T01:27:35.605Z,19.74
2022-08-01T01:30:43.382Z,19.74
2022-08-01T01:33:47.545Z,19.74
2022-08-01T01:36:54.182Z,19.86
2022-08-01T01:39:58.461Z,19.76
2022-08-01T01:43:01.860Z,19.73
2022-08-01T01:46:07.292Z,19.73
2022-08-01T01:49:11.745Z,19.59
2022-08-01T01:52:16.532Z,19.54
2022-08-01T01:55:22.283Z,19.72
2022-08-01T01:58:26.351Z,19.73
2022-08-01T02:02:06.125Z,19.62
2022-08-01T02:04:59.085Z,19.65
2022-08-01T02:08:03.452Z,19.60
2022-08-01T02:11:23.128Z,19.54
2022-08-01T02:14:28.043Z,19.47
2022-08-01T02:17:33.273Z,19.63
2022-08-01T02:20:38.713Z,19.78
2022-08-01T02:23:42.418Z,19.63
2022-08-01T02:26:49.768Z,19.63
2022-08-01T02:29:57.029Z,19.53
2022-08-01T02:33:05.895Z,19.53
2022-08-01T02:36:32.468Z,19.59
2022-08-01T02:39:34.129Z,19.52
2022-08-01T02:42:39.794Z,19.30
2022-08-01T02:45:48.556Z,19.24
2022-08-01T02:48:55.345Z,19.40
2022-08-01T02:51:59.722Z,19.29
2022-08-01T02:55:03.335Z,19.45
2022-08-01T02:58:08.487Z,19.47
2022-08-01T03:01:12.271Z,19.35
2022-08-01T03:04:18.755Z,19.37
2022-08-01T03:07:22.960Z,19.21
2022-08-01T03:10:28.942Z,19.01
2022-08-01T03:13:34.202Z,18.97
2022-08-01T03:16:39.947Z,19.09
2022-08-01T03:19:47.768Z,19.08
2022-08-01T03:22:53.773Z,19.22
2022-08-01T03:25:57.616Z,19.01
2022-08-01T03:29:03.956Z,19.13
2022-08-01T03:32:08.495Z,19.17
2022-08-01T03:35:12.877Z,19.26
2022-08-01T03:38:21.139Z,19.29
2022-08-01T03:41:27.896Z,19.28
2022-08-01T03:44:34.049Z,19.38
2022-08-01T03:47:43.570Z,19.37
2022-08-01T03:50:53.255Z,19.43
2022-08-01T03:53:58.005Z,19.59
2022-08-01T03:57:01.933Z,19.48
2022-08-01T04:00:07.758Z,19.49
2022-08-01T04:03:11.338Z,19.14
2022-08-01T04:06:16.517Z,19.14
2022-08-01T04:09:19.715Z,19.37
2022-08-01T04:12:22.893Z,19.42
2022-08-01T04:15:25.870Z,19.49
2022-08-01T04:18:28.667Z,19.20
2022-08-01T04:21:34.721Z,19.41
2022-08-01T04:24:38.444Z,19.44
2022-08-01T04:27:50.977Z,19.35
2022-08-01T04:31:01.750Z,19.41
2022-08-01T04:34:07.380Z,19.37
2022-08-01T04:37:13.166Z,19.33
2022-08-01T04:40:18.060Z,19.65
2022-08-01T04:43:20.962Z,19.58
2022-08-01T04:46:24.669Z,19.45
2022-08-01T04:49:27.536Z,19.52
2022-08-01T04:52:36.755Z,19.41
2022-08-01T04:55:39.490Z,19.57
2022-08-01T04:58:42.807Z,19.58
2022-08-01T05:01:50.653Z,19.71
2022-08-01T05:04:53.361Z,19.66
2022-08-01T05:07:57.407Z,19.67
2022-08-01T05:11:00.320Z,19.66
2022-08-01T05:14:03.034Z,19.58
2022-08-01T05:17:07.952Z,19.63
2022-08-01T05:20:12.450Z,19.69
2022-08-01T05:23:30.957Z,19.83
2022-08-01T05:26:39.263Z,19.58
2022-08-01T05:29:44.751Z,19.75
2022-08-01T05:32:47.639Z,19.61
2022-08-01T05:35:50.389Z,19.72
2022-08-01T05:38:54.490Z,19.50
2022-08-01T05:41:57.189Z,19.53
2022-08-01T05:44:59.881Z,19.43
2022-08-01T05:48:02.565Z,19.28
2022-08-01T05:51:05.455Z,18.92
2022-08-01T05:54:09.781Z,19.00
2022-08-01T05:57:12.564Z,19.28
2022-08-01T06:00:17.089Z,19.15
2022-08-01T06:03:20.184Z,19.27
2022-08-01T06:06:25.267Z,19.24
2022-08-01T06:09:29.987Z,19.32
2022-08-01T06:12:35.707Z,19.32
2022-08-01T06:15:38.673Z,19.44
2022-08-01T06:18:41.472Z,19.27
2022-08-01T06:21:44.207Z,19.33
2022-08-01T06:24:48.286Z,19.52
2022-08-01T06:27:51.100Z,19.55
2022-08-01T06:30:54.364Z,19.72
2022-08-01T06:33:58.171Z,19.69
2022-08-01T06:37:00.845Z,19.43
2022-08-01T06:40:16.952Z,19.52
2022-08-01T06:43:20.713Z,19.50
2022-08-01T06:46:23.426Z,19.51
2022-08-01T06:49:33.376Z,19.56
2022-08-01T06:52:36.650Z,19.72
2022-08-01T06:55:40.799Z,20.00
2022-08-01T06:58:43.572Z,19.92
2022-08-01T07:01:46.211Z,20.07
2022-08-01T07:04:49.181Z,20.17
2022-08-01T07:07:51.994Z,20.02
2022-08-01T07:10:56.686Z,19.59
2022-08-01T07:14:00.118Z,19.58
2022-08-01T07:17:02.873Z,19.47
2022-08-01T07:20:06.678Z,19.23
2022-08-01T07:23:13.094Z,19.31
2022-08-01T07:26:18.460Z,19.40
2022-08-01T07:29:26.899Z,19.27
2022-08-01T07:32:30.871Z,19.33
2022-08-01T07:35:33.694Z,19.53
2022-08-01T07:38:36.377Z,19.53
2022-08-01T07:41:53.857Z,19.53
2022-08-01T07:45:03.069Z,19.50
2022-08-01T07:48:08.910Z,19.70
2022-08-01T07:51:13.044Z,19.57
2022-08-01T07:54:15.892Z,19.53
2022-08-01T07:57:19.907Z,19.66
2022-08-01T08:00:22.811Z,19.32
2022-08-01T08:03:25.478Z,19.47
2022-08-01T08:06:28.180Z,19.36
2022-08-01T08:09:30.795Z,19.23
2022-08-01T08:12:41.466Z,19.43
2022-08-01T08:15:48.470Z,19.45
2022-08-01T08:18:51.402Z,19.64
2022-08-01T08:21:54.099Z,19.72
2022-08-01T08:24:56.820Z,19.57
2022-08-01T08:28:05.071Z,19.50
2022-08-01T08:31:07.777Z,19.73
2022-08-01T08:34:29.670Z,19.42
2022-08-01T08:37:37.904Z,19.31
2022-08-01T08:40:46.734Z,19.57
2022-08-01T08:43:50.831Z,19.78
2022-08-01T08:46:54.114Z,19.83
2022-08-01T08:49:58.863Z,19.80
2022-08-01T08:53:03.361Z,20.09
2022-08-01T08:56:10.699Z,20.08
2022-08-01T08:59:15.903Z,20.03
2022-08-01T09:02:18.600Z,20.30
2022-08-01T09:05:26.531Z,20.09
2022-08-01T09:08:42.131Z,19.87
2022-08-01T09:11:45.006Z,19.83
2022-08-01T09:15:01.289Z,19.77
2022-08-01T09:18:03.967Z,19.87
2022-08-01T09:21:15.875Z,19.75
2022-08-01T09:24:30.584Z,19.99
2022-08-01T09:27:34.651Z,19.94
2022-08-01T09:30:42.170Z,20.10
2022-08-01T09:33:51.698Z,19.87
2022-08-01T09:36:56.844Z,20.13
2022-08-01T09:39:59.734Z,20.41
2022-08-01T09:43:12.807Z,20.68
2022-08-01T09:46:20.623Z,20.99
2022-08-01T09:49:50.134Z,21.25
2022-08-01T09:52:57.106Z,21.18
2022-08-01T09:56:11.731Z,21.65
2022-08-01T09:59:16.774Z,22.23
2022-08-01T10:02:32.327Z,22.71
2022-08-01T10:05:37.243Z,23.05
2022-08-01T10:08:48.571Z,22.44
2022-08-01T10:11:52.623Z,22.60
2022-08-01T10:14:56.441Z,22.94
2022-08-01T10:18:03.139Z,23.59
2022-08-01T10:21:08.706Z,24.63
2022-08-01T10:24:14.968Z,24.54
2022-08-01T10:27:35.833Z,25.00
2022-08-01T10:30:43.690Z,24.57
2022-08-01T10:33:50.690Z,24.90
2022-08-01T10:36:55.907Z,24.57
2022-08-01T10:40:20.331Z,25.00
2022-08-01T10:43:22.344Z,24.94
2022-08-01T10:46:25.738Z,25.23
2022-08-01T10:49:32.629Z,25.44
2022-08-01T10:52:39.553Z,25.62
2022-08-01T10:55:50.822Z,26.13
2022-08-01T10:59:06.406Z,25.79
2022-08-01T11:02:32.351Z,24.92
2022-08-01T11:05:37.804Z,24.60
2022-08-01T11:08:40.757Z,25.39
2022-08-01T11:12:01.123Z,25.42
2022-08-01T11:15:29.796Z,25.93
2022-08-01T11:18:37.745Z,26.56
2022-08-01T11:22:04.705Z,26.66
2022-08-01T11:25:07.901Z,26.91
2022-08-01T11:28:29.081Z,26.82
2022-08-01T11:31:37.689Z,26.82
2022-08-01T11:34:56.398Z,27.10
2022-08-01T11:38:29.203Z,26.82
2022-08-01T11:41:38.547Z,25.96
2022-08-01T11:44:51.171Z,26.78
2022-08-01T11:47:53.903Z,27.25
2022-08-01T11:50:58.352Z,26.47
2022-08-01T11:54:06.837Z,25.56
2022-08-01T11:57:13.402Z,26.14
2022-08-01T12:00:18.809Z,26.72
2022-08-01T12:03:33.473Z,26.74
2022-08-01T12:06:36.826Z,27.08
2022-08-01T12:09:40.882Z,27.00
2022-08-01T12:12:46.202Z,27.37
2022-08-01T12:15:56.250Z,27.74
2022-08-01T12:18:59.499Z,28.23
2022-08-01T12:22:10.355Z,28.43
2022-08-01T12:25:16.245Z,28.65
2022-08-01T12:28:19.596Z,28.77
2022-08-01T12:31:33.158Z,28.88
2022-08-01T12:34:36.342Z,28.06
2022-08-01T12:37:39.836Z,28.58
2022-08-01T12:40:45.943Z,29.01
2022-08-01T12:43:50.017Z,29.13
2022-08-01T12:46:53.111Z,28.75
2022-08-01T12:49:55.874Z,28.84
2022-08-01T12:52:59.776Z,28.56
2022-08-01T12:56:03.820Z,28.75
2022-08-01T12:59:21.962Z,28.85
2022-08-01T13:02:33.817Z,28.73
2022-08-01T13:05:44.922Z,28.71
2022-08-01T13:08:47.616Z,28.45
2022-08-01T13:12:06.140Z,28.13
2022-08-01T13:15:22.076Z,28.11
2022-08-01T13:18:26.797Z,28.10
2022-08-01T13:21:52.843Z,27.48
2022-08-01T13:24:53.440Z,27.64
2022-08-01T13:28:18.260Z,27.90
2022-08-01T13:31:20.943Z,27.35
2022-08-01T13:34:32.310Z,27.56
2022-08-01T13:37:35.032Z,26.96
2022-08-01T13:40:39.963Z,26.98
2022-08-01T13:43:58.673Z,26.97
2022-08-01T13:47:02.089Z,26.73
2022-08-01T13:50:14.317Z,26.62
2022-08-01T13:53:18.495Z,26.55
2022-08-01T13:56:21.218Z,26.21
2022-08-01T13:59:25.320Z,25.96
2022-08-01T14:02:28.712Z,25.72
2022-08-01T14:05:32.314Z,25.57
2022-08-01T14:08:35.324Z,25.49
2022-08-01T14:11:38.509Z,25.55
2022-08-01T14:14:42.605Z,25.37
2022-08-01T14:17:47.615Z,25.57
2022-08-01T14:20:50.746Z,25.50
2022-08-01T14:23:57.531Z,25.51
2022-08-01T14:27:00.321Z,25.48
2022-08-01T14:30:05.009Z,25.78
2022-08-01T14:33:07.810Z,25.48
2022-08-01T14:36:30.343Z,25.31
2022-08-01T14:39:33.270Z,25.18
2022-08-01T14:42:35.947Z,25.03
2022-08-01T14:45:40.004Z,25.08
2022-08-01T14:48:42.742Z,25.08
2022-08-01T14:51:45.445Z,24.91
2022-08-01T14:54:48.381Z,24.77
2022-08-01T14:57:51.417Z,24.43
2022-08-01T15:00:58.912Z,24.27
2022-08-01T15:04:02.206Z,24.03
2022-08-01T15:07:07.260Z,23.81
2022-08-01T15:10:10.462Z,23.77
2022-08-01T15:13:13.089Z,23.60
2022-08-01T15:16:17.474Z,23.64
2022-08-01T15:19:20.109Z,23.65
2022-08-01T15:22:24.273Z,23.53
2022-08-01T15:25:26.953Z,23.25
2022-08-01T15:28:44.242Z,23.09
2022-08-01T15:31:48.356Z,23.36
2022-08-01T15:34:51.262Z,23.34
2022-08-01T15:37:53.952Z,23.44
2022-08-01T15:40:56.638Z,23.42
2022-08-01T15:43:59.331Z,23.17
2022-08-01T15:47:04.264Z,23.11
2022-08-01T15:50:07.914Z,22.97
2022-08-01T15:53:10.713Z,22.96
2022-08-01T15:56:13.451Z,22.80
2022-08-01T15:59:16.071Z,22.83
2022-08-01T16:02:20.182Z,22.72
2022-08-01T16:05:22.874Z,22.69
2022-08-01T16:08:25.484Z,22.69
2022-08-01T16:11:28.164Z,22.53
2022-08-01T16:14:30.755Z,22.55
2022-08-01T16:17:37.297Z,22.42
2022-08-01T16:20:45.613Z,22.34
2022-08-01T16:23:48.752Z,22.45
2022-08-01T16:26:52.117Z,22.34
2022-08-01T16:29:54.759Z,22.41
2022-08-01T16:33:00.491Z,22.37
2022-08-01T16:36:08.526Z,22.26
2022-08-01T16:39:23.031Z,22.26
2022-08-01T16:42:27.597Z,22.38
2022-08-01T16:45:30.727Z,22.27
2022-08-01T16:48:34.803Z,22.17
2022-08-01T16:51:47.812Z,22.04
2022-08-01T16:54:50.943Z,21.98
2022-08-01T16:57:53.654Z,21.79
2022-08-01T17:00:57.727Z,21.61
2022-08-01T17:04:20.738Z,21.73
2022-08-01T17:07:23.342Z,21.74
2022-08-01T17:10:26.556Z,21.75
2022-08-01T17:13:29.169Z,21.78
2022-08-01T17:16:36.102Z,21.68
2022-08-01T17:19:40.713Z,21.59
2022-08-01T17:22:43.354Z,21.46
2022-08-01T17:25:46.040Z,21.42
2022-08-01T17:28:48.756Z,21.47
2022-08-01T17:31:51.389Z,21.42
2022-08-01T17:34:55.373Z,21.56
2022-08-01T17:37:57.989Z,21.06
2022-08-01T17:41:00.658Z,21.19
2022-08-01T17:44:03.224Z,21.09
2022-08-01T17:47:06.541Z,21.10
2022-08-01T17:50:12.793Z,21.18
2022-08-01T17:53:21.205Z,20.99
2022-08-01T17:56:24.020Z,21.10
2022-08-01T17:59:26.578Z,21.11
2022-08-01T18:02:29.231Z,20.87
2022-08-01T18:05:36.938Z,20.74
2022-08-01T18:08:41.786Z,20.68
2022-08-01T18:11:44.499Z,20.75
2022-08-01T18:14:47.162Z,20.52
2022-08-01T18:17:49.787Z,20.36
2022-08-01T18:20:53.866Z,20.38
2022-08-01T18:24:01.366Z,20.24
2022-08-01T18:27:04.050Z,20.26
2022-08-01T18:30:08.809Z,20.35
2022-08-01T18:33:11.406Z,20.21
2022-08-01T18:36:31.579Z,20.19
2022-08-01T18:39:35.228Z,20.07
2022-08-01T18:42:38.637Z,19.92
2022-08-01T18:45:43.136Z,19.77
2022-08-01T18:48:45.882Z,19.81
2022-08-01T18:51:49.776Z,19.94
2022-08-01T18:54:52.708Z,19.88
2022-08-01T18:57:55.284Z,19.71
2022-08-01T19:00:57.875Z,19.59
2022-08-01T19:04:00.526Z,19.70
2022-08-01T19:07:05.187Z,19.57
2022-08-01T19:10:08.445Z,19.50
2022-08-01T19:13:11.711Z,19.26
2022-08-01T19:16:16.397Z,19.09
2022-08-01T19:19:27.375Z,19.06
2022-08-01T19:22:31.693Z,18.95
2022-08-01T19:25:34.352Z,18.89
2022-08-01T19:29:02.382Z,18.92
2022-08-01T19:32:07.081Z,18.71
2022-08-01T19:35:13.292Z,18.72
2022-08-01T19:38:18.376Z,18.69
2022-08-01T19:41:22.923Z,18.50
2022-08-01T19:44:28.842Z,18.36
2022-08-01T19:47:52.329Z,18.44
2022-08-01T19:50:56.403Z,18.45
2022-08-01T19:54:06.051Z,18.29
2022-08-01T19:57:10.679Z,18.29
2022-08-01T20:00:28.072Z,18.18
2022-08-01T20:03:35.051Z,18.23
2022-08-01T20:06:37.774Z,17.91
2022-08-01T20:09:42.966Z,18.05
2022-08-01T20:12:45.850Z,18.06
2022-08-01T20:15:49.074Z,18.12
2022-08-01T20:18:52.106Z,18.02
2022-08-01T20:22:03.088Z,18.09
2022-08-01T20:25:10.993Z,17.96
2022-08-01T20:28:14.306Z,17.94
2022-08-01T20:31:18.011Z,17.80
2022-08-01T20:34:22.651Z,17.77
2022-08-01T20:38:06.314Z,17.76
2022-08-01T20:40:52.404Z,17.77
2022-08-01T20:43:58.934Z,17.59
2022-08-01T20:47:04.905Z,17.52
2022-08-01T20:50:50.694Z,17.51
2022-08-01T20:53:52.470Z,17.53
2022-08-01T20:56:59.959Z,17.29
2022-08-01T21:00:05.848Z,17.49
2022-08-01T21:03:14.272Z,17.24
2022-08-01T21:06:24.333Z,17.27
2022-08-01T21:09:39.158Z,17.31
2022-08-01T21:12:49.375Z,17.03
2022-08-01T21:16:07.331Z,16.96
2022-08-01T21:19:26.806Z,16.81
2022-08-01T21:22:36.876Z,16.75
2022-08-01T21:25:39.570Z,16.81
2022-08-01T21:28:54.097Z,16.71
2022-08-01T21:32:12.302Z,16.75
2022-08-01T21:35:18.710Z,16.63
2022-08-01T21:38:22.302Z,16.59
2022-08-01T21:42:03.964Z,16.63
2022-08-01T21:44:49.974Z,16.67
2022-08-01T21:47:52.760Z,16.48
2022-08-01T21:50:57.979Z,16.61
2022-08-01T21:54:13.908Z,16.46
2022-08-01T21:57:26.655Z,16.30
2022-08-01T22:00:31.333Z,16.33
2022-08-01T22:03:41.455Z,16.39
2022-08-01T22:06:45.634Z,16.33
2022-08-01T22:09:50.909Z,16.22
2022-08-01T22:12:53.929Z,16.12
2022-08-01T22:15:59.623Z,16.11
2022-08-01T22:19:03.148Z,15.99
2022-08-01T22:22:29.135Z,15.96
2022-08-01T22:25:32.575Z,15.91
2022-08-01T22:28:36.222Z,15.73
2022-08-01T22:31:40.930Z,15.82
2022-08-01T22:34:43.592Z,15.75
2022-08-01T22:37:56.345Z,15.50
2022-08-01T22:41:03.938Z,15.65
2022-08-01T22:44:10.802Z,15.69
2022-08-01T22:47:21.230Z,15.51
2022-08-01T22:50:36.010Z,15.66
2022-08-01T22:53:48.376Z,15.55
2022-08-01T22:56:55.516Z,15.47
2022-08-01T23:00:02.141Z,15.45
2022-08-01T23:03:13.150Z,15.42
2022-08-01T23:06:23.534Z,15.51
2022-08-01T23:09:52.782Z,15.31
2022-08-01T23:12:51.905Z,14.93
2022-08-01T23:15:56.056Z,15.08
2022-08-01T23:19:00.878Z,15.07
2022-08-01T23:22:05.184Z,14.92
2022-08-01T23:25:10.347Z,14.86
2022-08-01T23:28:14.428Z,14.76
2022-08-01T23:31:17.853Z,14.73
2022-08-01T23:34:21.745Z,14.81
2022-08-01T23:37:24.453Z,14.98
2022-08-01T23:40:27.416Z,14.87
2022-08-01T23:43:30.028Z,14.69
2022-08-01T23:46:32.613Z,14.60
2022-08-01T23:49:53.396Z,14.87
2022-08-01T23:52:56.633Z,14.83
2022-08-01T23:56:01.138Z,14.97
2022-08-01T23:59:05.627Z,14.86
